Time;durP1;ratioP1;P1;durP2;ratioP2;P2;SDS_P1;SDS_P2;PMS_P1;PMS_P2;Temp;Humidity;BMP_temperature;BMP_pressure;BME280_temperature;BME280_humidity;BME280_pressure;Samples;Min_cycle;Max_cycle;Signal;HPM_P1;HPM_P2
2023/03/22 00:00:38;;;;;;;52.83;17.52;;;7.70;99.90;;;;;;5053159;28;20021;-64
2023/03/22 00:03:05;;;;;;;71.72;17.38;;;7.60;99.90;;;;;;5051768;28;20041;-64
2023/03/22 00:05:31;;;;;;;50.28;14.05;;;7.50;99.90;;;;;;5053318;28;20082;-64
2023/03/22 00:07:57;;;;;;;44.15;12.88;;;7.50;99.90;;;;;;5052636;28;20033;-64
2023/03/22 00:10:24;;;;;;;54.35;14.02;;;7.40;99.90;;;;;;5052738;28;20039;-64
2023/03/22 00:12:51;;;;;;;43.33;13.68;;;7.50;99.90;;;;;;5006094;28;1346955;-64
2023/03/22 00:15:17;;;;;;;64.63;14.20;;;7.30;99.90;;;;;;5053861;28;20057;-64
2023/03/22 00:17:44;;;;;;;46.05;12.65;;;7.50;99.90;;;;;;5052612;28;20445;-64
2023/03/22 00:20:10;;;;;;;47.88;12.52;;;7.30;99.90;;;;;;5053618;28;20029;-64
2023/03/22 00:22:37;;;;;;;39.33;11.45;;;7.50;99.90;;;;;;5053321;28;20044;-64
2023/03/22 00:25:04;;;;;;;52.58;14.55;;;7.30;99.90;;;;;;5053526;28;20154;-64
2023/03/22 00:27:30;;;;;;;49.30;18.02;;;7.60;99.90;;;;;;5053663;28;20036;-64
2023/03/22 00:29:56;;;;;;;75.07;31.70;;;7.60;99.90;;;;;;5053809;28;20032;-64
2023/03/22 00:32:22;;;;;;;71.75;38.13;;;7.40;99.90;;;;;;5053595;28;20025;-64
2023/03/22 00:34:47;;;;;;;56.95;23.60;;;7.40;99.90;;;;;;5053392;28;20033;-64
2023/03/22 00:37:15;;;;;;;50.45;19.25;;;7.50;99.90;;;;;;5053203;28;20024;-64
2023/03/22 00:39:41;;;;;;;30.63;8.80;;;7.40;99.90;;;;;;5053748;28;20374;-64
2023/03/22 00:42:07;;;;;;;25.42;10.75;;;7.40;99.90;;;;;;5052742;28;20302;-64
2023/03/22 00:44:32;;;;;;;14.30;8.38;;;7.40;99.90;;;;;;5053004;28;20028;-64
2023/03/22 00:46:58;;;;;;;19.58;9.57;;;7.40;99.90;;;;;;5053200;28;20021;-64
2023/03/22 00:49:26;;;;;;;25.70;9.07;;;7.20;99.90;;;;;;5053015;28;20108;-64
2023/03/22 00:51:52;;;;;;;16.52;8.02;;;7.40;99.90;;;;;;5053282;28;20040;-64
2023/03/22 00:54:19;;;;;;;19.75;9.10;;;7.00;99.90;;;;;;5052804;28;20029;-64
2023/03/22 00:56:44;;;;;;;13.38;7.50;;;7.00;99.90;;;;;;5053106;28;20025;-64
2023/03/22 00:59:11;;;;;;;12.80;7.63;;;7.30;99.90;;;;;;5053142;28;20059;-64
2023/03/22 01:01:37;;;;;;;16.88;7.15;;;7.00;99.90;;;;;;5052940;28;20436;-64
2023/03/22 01:04:04;;;;;;;37.65;9.57;;;7.00;99.90;;;;;;5053211;28;20037;-63
2023/03/22 01:06:32;;;;;;;34.08;9.30;;;6.90;99.90;;;;;;5052408;28;20469;-64
2023/03/22 01:08:58;;;;;;;49.17;14.15;;;6.90;99.90;;;;;;5052736;28;20025;-64
2023/03/22 01:11:25;;;;;;;47.00;13.82;;;7.00;99.90;;;;;;5052819;28;20041;-64
2023/03/22 01:13:50;;;;;;;31.98;11.02;;;7.00;99.90;;;;;;5052679;28;20053;-64
2023/03/22 01:16:17;;;;;;;38.80;11.60;;;6.70;99.90;;;;;;5053042;28;20024;-64
2023/03/22 01:18:43;;;;;;;29.70;10.98;;;6.80;99.90;;;;;;5052820;28;20048;-64
2023/03/22 01:21:09;;;;;;;30.90;11.32;;;6.90;99.90;;;;;;5052299;28;20028;-64
2023/03/22 01:23:36;;;;;;;25.23;10.25;;;6.90;99.90;;;;;;5052508;28;20409;-64
2023/03/22 01:26:02;;;;;;;41.53;10.57;;;6.60;99.90;;;;;;5052569;28;20109;-64
2023/03/22 01:28:29;;;;;;;20.52;8.63;;;6.80;99.90;;;;;;5052815;28;20103;-64
2023/03/22 01:30:55;;;;;;;28.08;9.15;;;6.60;99.90;;;;;;5052329;28;20025;-64
2023/03/22 01:33:21;;;;;;;18.75;8.05;;;6.70;99.90;;;;;;5052427;28;20393;-64
2023/03/22 01:35:47;;;;;;;33.13;10.73;;;6.80;99.90;;;;;;5052076;28;20116;-64
2023/03/22 01:38:12;;;;;;;14.25;7.00;;;6.60;99.90;;;;;;5052228;28;20440;-64
2023/03/22 01:40:38;;;;;;;14.10;7.15;;;6.60;99.90;;;;;;5052602;28;20021;-64
2023/03/22 01:43:12;;;;;;;24.73;7.38;;;6.50;99.90;;;;;;5052232;28;20039;-64
2023/03/22 01:45:52;;;;;;;28.23;8.35;;;6.60;99.90;;;;;;5052161;28;20057;-64
2023/03/22 01:48:23;;;;;;;19.70;8.40;;;6.80;99.90;;;;;;5052082;28;20033;-64
2023/03/22 01:51:07;;;;;;;30.35;9.00;;;6.20;99.90;;;;;;5051808;28;20045;-64
2023/03/22 01:53:39;;;;;;;30.23;9.18;;;6.20;99.90;;;;;;5051850;28;20025;-64
2023/03/22 01:56:06;;;;;;;20.83;8.63;;;6.30;99.90;;;;;;5052128;28;20120;-64
2023/03/22 01:58:35;;;;;;;21.80;9.10;;;6.50;99.90;;;;;;5050771;28;20444;-64
2023/03/22 02:01:02;;;;;;;20.58;8.27;;;6.10;99.90;;;;;;5052430;28;20124;-64
2023/03/22 02:04:05;;;;;;;20.15;8.23;;;6.30;99.90;;;;;;5051719;28;20033;-64
2023/03/22 02:06:32;;;;;;;36.20;8.80;;;6.30;99.90;;;;;;5047186;28;20036;-64
2023/03/22 02:08:58;;;;;;;44.60;8.85;;;6.10;99.90;;;;;;5052166;28;20033;-64
2023/03/22 02:11:37;;;;;;;33.88;10.77;;;6.00;99.90;;;;;;5052356;28;20493;-64
2023/03/22 02:14:24;;;;;;;40.83;11.25;;;6.10;99.90;;;;;;5051776;28;20124;-64
2023/03/22 02:17:22;;;;;;;45.30;11.85;;;5.90;99.90;;;;;;5051926;28;20029;-64
2023/03/22 02:20:20;;;;;;;33.38;11.73;;;6.20;99.90;;;;;;5051110;28;20080;-64
2023/03/22 02:23:27;;;;;;;35.83;15.23;;;5.80;99.90;;;;;;5051982;28;20120;-64
2023/03/22 02:26:30;;;;;;;23.65;13.73;;;5.90;99.90;;;;;;5051938;28;20020;-64
2023/03/22 02:29:06;;;;;;;19.50;12.55;;;6.10;99.90;;;;;;5051804;28;20025;-64
2023/03/22 02:31:37;;;;;;;26.13;17.33;;;6.00;99.90;;;;;;5052082;28;20040;-64
2023/03/22 02:34:27;;;;;;;20.67;15.77;;;6.10;99.90;;;;;;5051558;28;20033;-64
2023/03/22 02:37:23;;;;;;;19.77;14.43;;;6.10;99.90;;;;;;5051626;28;20025;-64
2023/03/22 02:39:57;;;;;;;15.60;11.27;;;6.00;99.90;;;;;;5051927;28;20127;-64
2023/03/22 02:42:25;;;;;;;;;;;5.80;99.90;;;;;;5051916;28;20478;-64
2023/03/22 02:45:09;;;;;;;13.48;9.52;;;5.80;99.90;;;;;;5051623;28;20331;-63
2023/03/22 02:47:52;;;;;;;10.23;7.93;;;5.90;99.90;;;;;;5051134;28;20025;-64
2023/03/22 02:50:21;;;;;;;10.48;8.25;;;5.90;99.90;;;;;;5051687;28;20109;-64
2023/03/22 02:53:25;;;;;;;8.95;7.10;;;5.90;99.90;;;;;;5051432;28;20079;-64
2023/03/22 02:56:17;;;;;;;8.80;6.30;;;5.90;99.90;;;;;;5029465;28;20128;-64
2023/03/22 02:58:46;;;;;;;7.50;6.65;;;5.80;99.90;;;;;;4970875;28;20049;-63
2023/03/22 03:01:26;;;;;;;7.78;5.95;;;5.70;99.90;;;;;;4970381;28;20035;-64
2023/03/22 03:03:56;;;;;;;6.72;5.05;;;6.00;99.90;;;;;;4970542;28;20082;-64
2023/03/22 03:06:27;;;;;;;5.95;5.35;;;5.80;99.90;;;;;;4971887;28;20039;-63
2023/03/22 03:08:56;;;;;;;5.53;4.90;;;5.80;99.90;;;;;;4974171;28;20080;-63
2023/03/22 03:11:23;;;;;;;5.10;4.60;;;5.60;99.90;;;;;;4974077;28;20043;-64
2023/03/22 03:13:50;;;;;;;5.28;4.57;;;6.10;99.90;;;;;;4974430;28;20050;-63
2023/03/22 03:16:20;;;;;;;5.43;3.67;;;5.70;99.90;;;;;;4973636;28;20045;-64
2023/03/22 03:19:06;;;;;;;31.45;24.17;;;5.80;99.90;;;;;;4973839;28;20113;-64
2023/03/22 03:21:41;;;;;;;33.00;24.55;;;6.10;99.90;;;;;;4973791;28;20038;-64
2023/03/22 03:24:06;;;;;;;10.65;8.77;;;5.90;99.90;;;;;;4973954;28;20149;-64
2023/03/22 03:26:59;;;;;;;6.43;5.57;;;5.90;99.90;;;;;;4983481;28;20117;-63
2023/03/22 03:29:39;;;;;;;9.18;7.93;;;5.60;99.90;;;;;;4993473;28;20134;-63
2023/03/22 03:32:16;;;;;;;7.80;6.63;;;5.50;99.90;;;;;;4992328;28;20026;-64
2023/03/22 03:35:21;;;;;;;7.32;5.60;;;5.70;99.90;;;;;;4996820;28;20104;-63
2023/03/22 03:37:58;;;;;;;6.40;5.80;;;5.70;99.90;;;;;;5031524;28;20042;-63
2023/03/22 03:40:31;;;;;;;5.50;4.95;;;5.80;99.90;;;;;;5034966;28;20036;-64
2023/03/22 03:43:01;;;;;;;5.97;5.38;;;5.70;99.90;;;;;;5034530;28;20045;-64
2023/03/22 03:45:27;;;;;;;6.78;4.68;;;5.60;99.90;;;;;;5033811;28;20018;-64
2023/03/22 03:47:58;;;;;;;5.13;4.45;;;5.70;99.90;;;;;;5034439;28;20451;-64
2023/03/22 03:50:25;;;;;;;4.70;3.90;;;5.70;99.90;;;;;;5053992;28;20062;-64
2023/03/22 03:52:53;;;;;;;4.10;3.70;;;5.60;99.90;;;;;;5054139;28;20029;-64
2023/03/22 03:55:20;;;;;;;5.10;3.63;;;5.70;99.90;;;;;;5054326;28;20077;-64
2023/03/22 03:57:45;;;;;;;5.80;4.05;;;5.50;99.90;;;;;;5054522;28;20481;-64
2023/03/22 04:00:15;;;;;;;8.18;4.28;;;5.90;99.90;;;;;;5053941;28;20059;-64
2023/03/22 04:02:42;;;;;;;4.97;4.47;;;5.70;99.90;;;;;;5054087;28;20505;-64
2023/03/22 04:05:08;;;;;;;8.82;6.63;;;5.40;99.90;;;;;;5053999;28;20100;-64
2023/03/22 04:07:34;;;;;;;60.75;54.47;;;5.50;99.90;;;;;;5054129;28;20017;-63
2023/03/22 04:10:01;;;;;;;45.78;40.97;;;5.50;99.90;;;;;;5054348;28;20025;-64
2023/03/22 04:12:26;;;;;;;37.20;33.35;;;5.70;99.90;;;;;;5053906;28;20443;-64
2023/03/22 04:14:54;;;;;;;27.65;24.75;;;5.60;99.90;;;;;;5053348;28;20136;-64
2023/03/22 04:17:20;;;;;;;30.55;27.30;;;5.30;99.90;;;;;;5052550;28;20039;-63
2023/03/22 04:19:46;;;;;;;27.05;24.30;;;5.40;99.90;;;;;;5053974;28;20037;-64
2023/03/22 04:22:13;;;;;;;35.50;31.90;;;5.40;99.90;;;;;;5054106;28;20041;-64
2023/03/22 04:24:42;;;;;;;31.55;28.25;;;5.50;99.90;;;;;;5053723;28;20110;-64
2023/03/22 04:27:08;;;;;;;24.23;21.80;;;5.30;99.90;;;;;;5053849;28;20025;-63
2023/03/22 04:29:35;;;;;;;20.00;18.00;;;5.30;99.90;;;;;;5053298;28;20580;-63
2023/03/22 04:32:04;;;;;;;23.98;21.52;;;5.50;99.90;;;;;;5052888;28;20071;-64
2023/03/22 04:34:30;;;;;;;16.67;14.98;;;5.40;99.90;;;;;;5053627;28;20029;-64
2023/03/22 04:36:56;;;;;;;12.65;11.45;;;5.40;99.90;;;;;;5053568;28;20028;-64
2023/03/22 04:39:22;;;;;;;11.88;10.68;;;5.30;99.90;;;;;;5053926;28;20043;-64
2023/03/22 04:41:47;;;;;;;9.55;8.45;;;5.20;99.90;;;;;;5053441;28;20092;-64
2023/03/22 04:44:13;;;;;;;8.70;7.25;;;5.10;99.90;;;;;;5053123;28;20059;-64
2023/03/22 04:46:41;;;;;;;7.38;5.85;;;5.20;99.90;;;;;;5051921;28;20438;-63
2023/03/22 04:49:07;;;;;;;7.35;6.65;;;5.20;99.90;;;;;;5053412;28;20116;-64
2023/03/22 04:51:32;;;;;;;6.38;5.72;;;5.30;99.90;;;;;;5053275;28;20092;-64
2023/03/22 04:53:59;;;;;;;9.18;6.68;;;5.40;99.90;;;;;;5053289;28;20025;-64
2023/03/22 04:56:25;;;;;;;6.38;5.50;;;5.40;99.90;;;;;;5053449;28;20515;-64
2023/03/22 04:58:51;;;;;;;6.65;5.90;;;5.50;99.90;;;;;;5052789;28;20044;-64
2023/03/22 05:01:17;;;;;;;5.95;5.45;;;5.50;99.90;;;;;;5053038;28;20079;-64
2023/03/22 05:03:47;;;;;;;7.90;6.00;;;5.20;99.90;;;;;;5053022;28;20052;-64
2023/03/22 05:06:13;;;;;;;7.85;5.20;;;5.30;99.90;;;;;;5052795;28;20025;-64
2023/03/22 05:08:39;;;;;;;5.80;5.20;;;5.20;99.90;;;;;;5053004;28;20040;-64
2023/03/22 05:11:15;;;;;;;7.40;6.20;;;5.30;99.90;;;;;;5053032;28;20025;-64
2023/03/22 05:13:41;;;;;;;5.85;5.18;;;5.50;99.90;;;;;;5052207;28;20049;-64
2023/03/22 05:16:08;;;;;;;6.35;5.45;;;5.50;99.90;;;;;;5052521;28;20104;-64
2023/03/22 05:18:36;;;;;;;6.43;5.50;;;5.70;99.90;;;;;;5052674;28;20393;-64
2023/03/22 05:21:05;;;;;;;8.45;5.30;;;5.40;99.90;;;;;;5052655;28;20502;-64
2023/03/22 05:23:31;;;;;;;5.60;5.07;;;5.90;99.90;;;;;;5052691;28;20025;-64
2023/03/22 05:25:57;;;;;;;6.18;5.55;;;6.00;99.90;;;;;;5052607;28;20025;-64
2023/03/22 05:28:26;;;;;;;7.00;5.25;;;6.00;99.90;;;;;;5052441;28;20485;-64
2023/03/22 05:30:51;;;;;;;8.00;6.07;;;6.00;99.90;;;;;;5052175;28;20481;-64
2023/03/22 05:33:23;;;;;;;6.93;5.88;;;6.40;99.90;;;;;;5052572;28;20036;-64
2023/03/22 05:35:49;;;;;;;9.55;6.25;;;6.20;99.90;;;;;;5052569;28;20159;-64
2023/03/22 05:38:16;;;;;;;6.60;5.78;;;6.50;99.90;;;;;;5052610;28;20082;-64
2023/03/22 05:40:42;;;;;;;7.47;6.32;;;6.50;99.90;;;;;;5051914;28;20029;-63
2023/03/22 05:43:08;;;;;;;8.82;6.30;;;6.40;99.90;;;;;;5052073;28;20037;-64
2023/03/22 05:45:35;;;;;;;8.40;7.38;;;6.50;99.90;;;;;;5052244;28;20039;-64
2023/03/22 05:48:02;;;;;;;9.63;7.43;;;6.60;99.90;;;;;;5052219;28;20386;-65
2023/03/22 05:50:27;;;;;;;10.93;7.80;;;6.60;99.90;;;;;;5052096;28;20382;-64
2023/03/22 05:52:53;;;;;;;10.45;8.10;;;6.30;99.90;;;;;;5051200;28;20029;-64
2023/03/22 05:55:19;;;;;;;8.73;7.40;;;6.50;99.90;;;;;;5051646;28;20021;-64
2023/03/22 05:57:46;;;;;;;9.60;8.15;;;6.70;99.90;;;;;;5051919;28;20485;-64
2023/03/22 06:00:14;;;;;;;7.75;6.68;;;6.80;99.90;;;;;;5052576;28;20025;-64
2023/03/22 06:02:41;;;;;;;9.88;7.32;;;6.80;99.90;;;;;;5050944;28;20482;-64
2023/03/22 06:05:10;;;;;;;7.80;7.00;;;6.90;99.90;;;;;;5052015;28;20025;-64
2023/03/22 06:07:36;;;;;;;9.40;7.80;;;6.80;99.90;;;;;;5051981;28;20033;-64
2023/03/22 06:10:04;;;;;;;10.68;8.00;;;6.70;99.90;;;;;;5051743;28;20029;-63
2023/03/22 06:12:30;;;;;;;8.77;7.40;;;6.40;99.90;;;;;;5052190;28;20037;-64
2023/03/22 06:14:56;;;;;;;9.88;7.38;;;6.60;99.90;;;;;;5051858;28;20051;-64
2023/03/22 06:17:22;;;;;;;9.15;7.30;;;6.50;99.90;;;;;;5051960;28;20517;-64
2023/03/22 06:19:49;;;;;;;8.38;7.50;;;6.60;99.90;;;;;;5051727;28;20501;-64
2023/03/22 06:22:14;;;;;;;9.82;7.20;;;6.60;99.90;;;;;;5051741;28;20036;-64
2023/03/22 06:24:41;;;;;;;9.25;7.20;;;7.10;99.90;;;;;;5051232;28;20033;-63
2023/03/22 06:27:07;;;;;;;10.15;7.10;;;7.10;99.90;;;;;;5052296;28;20436;-63
2023/03/22 06:29:33;;;;;;;8.00;7.15;;;7.10;99.90;;;;;;5051826;28;20387;-63
2023/03/22 06:31:59;;;;;;;8.82;6.32;;;7.30;99.90;;;;;;5051738;28;20028;-63
2023/03/22 06:34:25;;;;;;;10.52;7.40;;;7.00;99.90;;;;;;5051308;28;20040;-63
2023/03/22 06:36:52;;;;;;;37.88;26.38;;;7.30;99.90;;;;;;5051721;28;20021;-63
2023/03/22 06:39:18;;;;;;;14.10;11.38;;;7.70;99.90;;;;;;5051366;28;20055;-63
2023/03/22 06:41:44;;;;;;;19.75;15.90;;;7.70;99.90;;;;;;5053833;28;20021;-63
2023/03/22 06:44:10;;;;;;;17.98;13.55;;;8.00;99.90;;;;;;5054172;28;20055;-63
2023/03/22 06:46:36;;;;;;;20.92;17.30;;;8.10;99.90;;;;;;5055586;28;20025;-63
2023/03/22 06:49:02;;;;;;;25.95;19.23;;;8.40;99.90;;;;;;5055806;28;20033;-63
2023/03/22 06:51:28;;;;;;;17.35;13.55;;;8.60;99.90;;;;;;5055458;28;20031;-63
2023/03/22 06:53:54;;;;;;;18.27;16.10;;;8.80;99.90;;;;;;5055092;28;20032;-62
2023/03/22 06:56:20;;;;;;;17.45;14.13;;;8.80;99.90;;;;;;5055159;28;20029;-62
2023/03/22 06:58:45;;;;;;;16.45;13.50;;;9.10;99.90;;;;;;5054310;28;20116;-62
2023/03/22 07:01:11;;;;;;;17.40;12.90;;;9.00;99.90;;;;;;5055563;28;20024;-62
2023/03/22 07:03:37;;;;;;;14.35;10.60;;;9.10;99.90;;;;;;5055195;28;20098;-62
2023/03/22 07:06:05;;;;;;;10.52;7.20;;;9.20;99.90;;;;;;5055192;28;20025;-62
2023/03/22 07:08:31;;;;;;;8.25;6.63;;;9.20;99.90;;;;;;5054824;28;20029;-62
2023/03/22 07:10:56;;;;;;;10.00;6.93;;;9.00;99.90;;;;;;5054943;28;20544;-62
2023/03/22 07:13:22;;;;;;;8.73;6.75;;;9.00;99.90;;;;;;5054948;28;20053;-62
2023/03/22 07:15:48;;;;;;;9.40;6.97;;;9.10;99.90;;;;;;5055503;28;20024;-62
2023/03/22 07:18:14;;;;;;;13.90;6.70;;;9.50;99.90;;;;;;5054901;28;20397;-62
2023/03/22 07:20:40;;;;;;;16.75;10.70;;;9.80;99.90;;;;;;5054864;28;20036;-62
2023/03/22 07:23:09;;;;;;;16.08;10.80;;;10.00;99.90;;;;;;5054925;28;20040;-62
2023/03/22 07:25:35;;;;;;;16.75;12.18;;;10.20;99.90;;;;;;5054782;28;20021;-62
2023/03/22 07:28:01;;;;;;;16.23;12.73;;;10.20;99.90;;;;;;5054802;28;20021;-62
2023/03/22 07:30:27;;;;;;;15.77;11.90;;;10.20;99.90;;;;;;5054813;28;20051;-62
2023/03/22 07:32:52;;;;;;;24.58;13.85;;;10.50;99.90;;;;;;5055146;28;20461;-63
2023/03/22 07:35:18;;;;;;;14.57;12.05;;;10.40;99.90;;;;;;5054801;28;20027;-63
2023/03/22 07:37:44;;;;;;;16.58;12.65;;;10.70;99.90;;;;;;5054393;28;20435;-63
2023/03/22 07:40:11;;;;;;;16.63;11.43;;;10.70;99.90;;;;;;5054629;28;20576;-63
2023/03/22 07:42:37;;;;;;;14.95;10.48;;;10.70;99.90;;;;;;5054856;28;20130;-63
2023/03/22 07:45:03;;;;;;;14.55;10.38;;;10.60;99.90;;;;;;5054203;28;20489;-63
2023/03/22 07:47:29;;;;;;;13.10;9.88;;;10.50;99.90;;;;;;5054796;28;20052;-63
2023/03/22 07:49:54;;;;;;;9.77;8.80;;;10.60;99.90;;;;;;5054555;28;20098;-63
2023/03/22 07:52:20;;;;;;;10.50;9.40;;;10.80;99.90;;;;;;5053766;28;20434;-63
2023/03/22 07:54:46;;;;;;;9.60;8.70;;;10.80;99.90;;;;;;5054084;28;20025;-63
2023/03/22 07:57:12;;;;;;;7.22;6.53;;;10.70;99.90;;;;;;5053056;28;20460;-63
2023/03/22 07:59:38;;;;;;;6.70;5.78;;;10.70;99.90;;;;;;5054243;28;20402;-64
2023/03/22 08:02:03;;;;;;;6.05;5.45;;;10.70;99.90;;;;;;5053776;28;20021;-62
2023/03/22 08:04:29;;;;;;;8.10;5.95;;;10.60;99.90;;;;;;5054494;28;20032;-62
2023/03/22 08:06:57;;;;;;;14.48;13.07;;;10.80;99.90;;;;;;5053615;28;20029;-62
2023/03/22 08:09:24;;;;;;;13.07;11.80;;;10.70;99.90;;;;;;5053845;28;20040;-61
2023/03/22 08:11:50;;;;;;;6.63;5.43;;;10.70;99.90;;;;;;5054100;28;20371;-63
2023/03/22 08:14:16;;;;;;;6.03;5.43;;;10.90;99.90;;;;;;5053529;28;20057;-63
2023/03/22 08:16:43;;;;;;;6.28;4.40;;;10.90;99.90;;;;;;5054118;28;20139;-62
2023/03/22 08:19:11;;;;;;;4.72;4.03;;;10.80;99.90;;;;;;5053772;28;20029;-63
2023/03/22 08:21:37;;;;;;;5.70;4.53;;;10.90;99.90;;;;;;5053311;28;20094;-62
2023/03/22 08:24:04;;;;;;;7.30;5.18;;;11.00;99.90;;;;;;5053585;28;20470;-62
2023/03/22 08:26:29;;;;;;;6.35;4.95;;;11.20;99.90;;;;;;5053637;28;20029;-62
2023/03/22 08:28:56;;;;;;;4.13;3.45;;;11.30;99.90;;;;;;5053678;28;20029;-63
2023/03/22 08:31:22;;;;;;;3.97;3.58;;;11.20;99.90;;;;;;5052765;28;20025;-63
2023/03/22 08:33:48;;;;;;;4.40;3.53;;;11.30;99.90;;;;;;5053099;28;20029;-63
2023/03/22 08:36:17;;;;;;;3.90;3.58;;;11.40;99.90;;;;;;5053197;28;20481;-62
2023/03/22 08:38:44;;;;;;;3.92;3.50;;;11.60;99.90;;;;;;5053088;28;20025;-63
2023/03/22 08:41:11;;;;;;;4.50;4.00;;;11.80;99.90;;;;;;5053419;28;20041;-63
2023/03/22 08:43:37;;;;;;;4.32;3.70;;;11.80;99.90;;;;;;5053310;28;20045;-62
2023/03/22 08:46:03;;;;;;;5.43;3.80;;;11.90;99.90;;;;;;5051706;28;20025;-62
2023/03/22 08:48:30;;;;;;;5.95;4.13;;;11.90;99.90;;;;;;5053079;28;20032;-63
2023/03/22 08:50:57;;;;;;;6.53;3.85;;;12.30;99.90;;;;;;5053226;28;20029;-63
2023/03/22 08:53:23;;;;;;;3.58;3.22;;;12.50;99.90;;;;;;5053119;28;20371;-63
2023/03/22 08:55:48;;;;;;;5.78;3.30;;;12.70;99.90;;;;;;5053067;28;20466;-63
2023/03/22 08:58:15;;;;;;;4.93;3.25;;;12.40;99.90;;;;;;5053559;28;20048;-62
2023/03/22 09:00:42;;;;;;;4.70;3.20;;;12.40;99.90;;;;;;5053094;28;20029;-63
2023/03/22 09:03:08;;;;;;;4.20;3.10;;;12.40;99.90;;;;;;5052645;28;20060;-63
2023/03/22 09:05:34;;;;;;;4.50;3.30;;;12.60;99.90;;;;;;5052314;28;20096;-63
2023/03/22 09:08:01;;;;;;;4.22;2.88;;;12.90;99.90;;;;;;5052681;28;20105;-63
2023/03/22 09:10:27;;;;;;;5.25;3.10;;;13.00;99.90;;;;;;5052788;28;20028;-63
2023/03/22 09:12:53;;;;;;;3.53;2.85;;;13.00;99.90;;;;;;5052666;28;20047;-63
2023/03/22 09:15:19;;;;;;;3.08;2.60;;;13.60;99.90;;;;;;5053130;28;20397;-63
2023/03/22 09:17:45;;;;;;;3.58;2.90;;;13.80;99.90;;;;;;5052681;28;20112;-63
2023/03/22 09:20:11;;;;;;;4.53;3.25;;;14.20;99.90;;;;;;5052323;28;20116;-63
2023/03/22 09:22:37;;;;;;;5.10;3.05;;;15.00;99.90;;;;;;5052374;28;20567;-63
2023/03/22 09:25:03;;;;;;;3.50;3.20;;;14.10;99.90;;;;;;5052711;28;20028;-63
2023/03/22 09:27:29;;;;;;;2.97;2.78;;;13.80;99.90;;;;;;5052590;28;20044;-63
2023/03/22 09:29:55;;;;;;;5.35;3.22;;;13.70;99.90;;;;;;5052853;28;20037;-63
2023/03/22 09:32:21;;;;;;;3.20;2.90;;;14.20;99.90;;;;;;5053081;28;20404;-63
2023/03/22 09:34:47;;;;;;;4.68;3.30;;;14.60;99.90;;;;;;5052099;28;20126;-63
2023/03/22 09:37:13;;;;;;;4.65;3.50;;;15.00;99.90;;;;;;5052451;28;20423;-63
2023/03/22 09:39:40;;;;;;;6.93;4.50;;;15.50;99.90;;;;;;5052666;28;20059;-63
2023/03/22 09:42:30;;;;;;;6.10;4.15;;;16.30;99.90;;;;;;5052605;28;20029;-63
2023/03/22 09:44:56;;;;;;;5.40;3.20;;;18.00;99.90;;;;;;5044860;28;20041;-63
2023/03/22 09:47:39;;;;;;;4.47;2.90;;;20.10;99.90;;;;;;5051935;28;20447;-63
2023/03/22 09:50:18;;;;;;;5.57;3.37;;;21.60;99.90;;;;;;5051966;28;20053;-63
2023/03/22 09:52:44;;;;;;;5.55;2.95;;;21.70;99.90;;;;;;5052247;28;20032;-63
2023/03/22 09:55:33;;;;;;;2.72;2.40;;;21.60;99.90;;;;;;5052196;28;20025;-62
2023/03/22 09:58:24;;;;;;;5.65;2.78;;;22.50;99.90;;;;;;5030193;28;20065;-63
2023/03/22 10:01:05;;;;;;;6.50;3.33;;;22.60;99.90;;;;;;5030182;28;20524;-63
2023/03/22 10:03:42;;;;;;;4.55;3.47;;;21.50;99.90;;;;;;5029992;28;20092;-63
2023/03/22 10:06:26;;;;;;;2.65;2.35;;;21.00;99.90;;;;;;5029843;28;20169;-63
2023/03/22 10:09:01;;;;;;;3.00;2.70;;;21.40;99.90;;;;;;5030191;28;20064;-63
2023/03/22 10:11:41;;;;;;;4.63;2.47;;;21.10;99.90;;;;;;5029958;28;20037;-63
2023/03/22 10:14:34;;;;;;;4.03;2.47;;;19.50;99.90;;;;;;5029692;28;20060;-63
2023/03/22 10:17:07;;;;;;;4.03;2.72;;;20.00;99.90;;;;;;5033722;28;20583;-63
2023/03/22 10:19:54;;;;;;;3.77;2.47;;;20.80;99.90;;;;;;5034073;28;20029;-63
2023/03/22 10:22:26;;;;;;;3.50;2.33;;;21.20;99.90;;;;;;5033799;28;20502;-63
2023/03/22 10:24:53;;;;;;;3.15;2.28;;;20.00;99.90;;;;;;5033948;28;20038;-63
2023/03/22 10:27:21;;;;;;;4.10;2.47;;;19.80;99.90;;;;;;5033941;28;20038;-63
2023/03/22 10:30:11;;;;;;;5.13;3.15;;;19.20;99.90;;;;;;5033882;28;20065;-63
2023/03/22 10:33:01;;;;;;;2.78;2.30;;;19.00;99.90;;;;;;5033467;28;20030;-64
2023/03/22 10:35:29;;;;;;;3.83;2.58;;;19.00;99.90;;;;;;5034916;28;20033;-63
2023/03/22 10:37:58;;;;;;;4.35;2.40;;;19.00;99.90;;;;;;5036138;28;20017;-62
2023/03/22 10:40:28;;;;;;;4.03;2.40;;;19.30;99.90;;;;;;5035664;28;20032;-60
2023/03/22 10:42:56;;;;;;;4.93;2.25;;;19.40;99.90;;;;;;5035597;28;20041;-61
2023/03/22 10:45:25;;;;;;;4.18;2.20;;;19.80;99.90;;;;;;5035102;28;20079;-61
2023/03/22 10:48:02;;;;;;;2.55;2.17;;;19.70;99.90;;;;;;5035550;28;20432;-61
2023/03/22 10:50:35;;;;;;;3.38;2.42;;;18.90;99.90;;;;;;5055215;28;20025;-61
2023/03/22 10:53:23;;;;;;;3.83;2.65;;;19.00;99.90;;;;;;5054874;28;20025;-62
2023/03/22 10:55:49;;;;;;;3.17;2.30;;;19.20;99.90;;;;;;5055075;28;20041;-63
2023/03/22 10:58:21;;;;;;;3.90;2.40;;;18.70;99.90;;;;;;5054735;28;20102;-61
2023/03/22 11:00:52;;;;;;;3.72;2.22;;;19.00;99.90;;;;;;5054224;28;20017;-61
2023/03/22 11:03:41;;;;;;;3.72;2.45;;;19.20;99.90;;;;;;5055157;28;20037;-63
2023/03/22 11:06:19;;;;;;;3.80;2.80;;;18.90;99.90;;;;;;5055078;28;20111;-63
2023/03/22 11:08:55;;;;;;;2.90;2.60;;;18.80;99.90;;;;;;5054501;28;20048;-63
2023/03/22 11:11:24;;;;;;;4.25;2.75;;;18.90;99.90;;;;;;5053436;28;20401;-61
2023/03/22 11:13:54;;;;;;;4.43;2.22;;;19.50;99.90;;;;;;5054573;28;20049;-63
2023/03/22 11:16:20;;;;;;;4.80;2.55;;;19.00;99.90;;;;;;5054566;28;20028;-63
2023/03/22 11:18:46;;;;;;;5.20;2.80;;;19.30;99.90;;;;;;5054715;28;20436;-63
2023/03/22 11:21:15;;;;;;;3.65;3.03;;;19.20;99.90;;;;;;5054872;28;20083;-63
2023/03/22 11:23:56;;;;;;;3.55;2.80;;;19.10;99.90;;;;;;5055262;28;20055;-63
2023/03/22 11:26:28;;;;;;;3.38;2.47;;;19.20;99.90;;;;;;5054385;28;20025;-63
2023/03/22 11:29:20;;;;;;;4.68;2.88;;;19.00;99.90;;;;;;5054601;28;20059;-63
2023/03/22 11:31:58;;;;;;;3.85;2.60;;;19.20;99.90;;;;;;5054469;28;20120;-63
2023/03/22 11:34:29;;;;;;;3.22;2.47;;;19.40;99.90;;;;;;5054501;28;20807;-63
2023/03/22 11:36:58;;;;;;;3.42;2.63;;;19.30;99.90;;;;;;5054750;28;20075;-63
2023/03/22 11:39:28;;;;;;;3.00;2.50;;;19.00;99.90;;;;;;5054733;28;20013;-63
2023/03/22 11:42:00;;;;;;;3.38;2.42;;;19.30;99.90;;;;;;5055013;28;20025;-63
2023/03/22 11:44:31;;;;;;;3.72;2.50;;;20.10;99.90;;;;;;5054072;28;20037;-63
2023/03/22 11:46:59;;;;;;;4.13;2.70;;;20.30;99.90;;;;;;5054359;28;20095;-63
2023/03/22 11:49:43;;;;;;;3.60;2.50;;;20.60;99.90;;;;;;5054365;28;20463;-63
2023/03/22 11:52:15;;;;;;;3.58;2.60;;;20.30;99.90;;;;;;5054409;28;20550;-64
2023/03/22 11:54:42;;;;;;;3.88;2.40;;;20.60;99.90;;;;;;5054714;28;20025;-64
2023/03/22 11:57:19;;;;;;;4.13;2.63;;;21.60;99.90;;;;;;5054350;28;20036;-64
2023/03/22 11:59:57;;;;;;;5.25;2.65;;;21.60;99.90;;;;;;5053987;28;20060;-63
2023/03/22 12:02:37;;;;;;;4.22;2.50;;;21.30;99.90;;;;;;5054099;28;20028;-63
2023/03/22 12:05:13;;;;;;;3.92;2.28;;;21.30;99.90;;;;;;5054783;28;20519;-64
2023/03/22 12:07:40;;;;;;;4.05;2.60;;;21.40;99.90;;;;;;5054121;28;20499;-63
2023/03/22 12:10:23;;;;;;;3.00;2.20;;;21.80;99.90;;;;;;5054013;28;20112;-63
2023/03/22 12:13:21;;;;;;;4.10;2.47;;;22.00;99.90;;;;;;5053622;28;20048;-63
2023/03/22 12:15:55;;;;;;;4.13;2.40;;;22.60;99.90;;;;;;5052126;28;20040;-63
2023/03/22 12:18:27;;;;;;;5.00;2.90;;;22.50;99.90;;;;;;5052675;28;20510;-63
2023/03/22 12:20:56;;;;;;;2.65;2.45;;;22.20;99.90;;;;;;5053623;28;20029;-64
2023/03/22 12:23:30;;;;;;;4.18;2.60;;;22.20;99.90;;;;;;5053839;28;20041;-63
2023/03/22 12:26:11;;;;;;;3.47;2.75;;;22.10;99.90;;;;;;5053741;28;20082;-64
2023/03/22 12:28:49;;;;;;;4.20;2.50;;;20.60;99.90;;;;;;5053854;28;20033;-63
2023/03/22 12:31:20;;;;;;;2.80;2.45;;;20.80;99.90;;;;;;5053930;28;20112;-63
2023/03/22 12:33:55;;;;;;;4.03;2.47;;;21.00;99.90;;;;;;5053483;28;20036;-63
2023/03/22 12:36:46;;;;;;;3.80;2.80;;;20.80;99.90;;;;;;5053675;28;20021;-64
2023/03/22 12:39:27;;;;;;;4.78;2.90;;;20.20;99.90;;;;;;5052600;28;20033;-63
2023/03/22 12:41:58;;;;;;;4.47;3.00;;;19.80;99.90;;;;;;5053154;28;20123;-62
2023/03/22 12:44:26;;;;;;;4.35;2.83;;;20.40;99.90;;;;;;5053226;28;20041;-63
2023/03/22 12:47:30;;;;;;;6.05;3.00;;;20.50;99.90;;;;;;5053354;28;20059;-63
2023/03/22 12:50:02;;;;;;;6.40;3.10;;;20.00;99.90;;;;;;5053243;28;20040;-63
2023/03/22 12:52:39;;;;;;;6.63;3.10;;;20.60;99.90;;;;;;5053390;28;20032;-63
2023/03/22 12:55:09;;;;;;;7.80;3.30;;;20.10;99.90;;;;;;5053497;28;20112;-63
2023/03/22 12:57:37;;;;;;;6.18;3.17;;;19.90;99.90;;;;;;5052777;28;20083;-63
2023/03/22 13:00:18;;;;;;;8.98;3.40;;;20.10;99.90;;;;;;5052979;28;20111;-63
2023/03/22 13:03:07;;;;;;;4.93;3.10;;;20.70;99.90;;;;;;5053053;28;20056;-63